createdAt,value
2018-08-24T00:00:16.004Z,20.90
2018-08-24T00:02:44.410Z,20.90
2018-08-24T00:05:12.803Z,20.90
2018-08-24T00:07:41.229Z,20.90
2018-08-24T00:10:09.714Z,20.90
2018-08-24T00:12:38.087Z,20.90
2018-08-24T00:15:06.574Z,20.90
2018-08-24T00:17:34.987Z,21.00
2018-08-24T00:20:03.504Z,21.00
2018-08-24T00:22:31.895Z,21.00
2018-08-24T00:25:00.327Z,21.00
2018-08-24T00:27:28.736Z,21.10
2018-08-24T00:29:57.078Z,21.10
2018-08-24T00:32:25.459Z,21.10
2018-08-24T00:34:53.843Z,21.10
2018-08-24T00:37:22.291Z,21.10
2018-08-24T00:39:50.657Z,21.10
2018-08-24T00:42:19.086Z,21.10
2018-08-24T00:44:47.677Z,21.10
2018-08-24T00:47:16.134Z,21.10
2018-08-24T00:49:45.411Z,21.10
2018-08-24T00:52:13.793Z,21.10
2018-08-24T00:54:42.139Z,21.00
2018-08-24T00:57:10.554Z,21.10
2018-08-24T00:59:38.930Z,21.10
2018-08-24T01:02:07.334Z,21.10
2018-08-24T01:04:36.249Z,21.10
2018-08-24T01:07:10.334Z,21.00
2018-08-24T01:09:39.351Z,21.00
2018-08-24T01:12:17.424Z,21.00
2018-08-24T01:14:47.169Z,21.00
2018-08-24T01:17:21.154Z,21.00
2018-08-24T01:19:49.581Z,21.00
2018-08-24T01:22:17.997Z,21.00
2018-08-24T01:24:46.428Z,21.00
2018-08-24T01:27:14.882Z,21.00
2018-08-24T01:29:43.429Z,20.90
2018-08-24T01:32:13.851Z,21.00
2018-08-24T01:34:42.257Z,21.00
2018-08-24T01:37:10.606Z,21.00
2018-08-24T01:39:38.919Z,21.10
2018-08-24T01:42:07.385Z,21.10
2018-08-24T01:44:35.845Z,21.20
2018-08-24T01:47:04.359Z,21.20
2018-08-24T01:49:32.820Z,21.20
2018-08-24T01:52:01.234Z,21.20
2018-08-24T01:54:29.685Z,21.20
2018-08-24T01:56:58.066Z,21.20
2018-08-24T01:59:26.386Z,21.20
2018-08-24T02:01:54.741Z,21.20
2018-08-24T02:04:23.122Z,21.20
2018-08-24T02:06:51.481Z,21.20
2018-08-24T02:09:22.950Z,21.20
2018-08-24T02:11:51.671Z,21.00
2018-08-24T02:14:26.020Z,21.00
2018-08-24T02:16:54.435Z,21.10
2018-08-24T02:19:28.349Z,21.10
2018-08-24T02:22:02.469Z,21.10
2018-08-24T02:24:30.885Z,21.00
2018-08-24T02:26:59.319Z,21.10
2018-08-24T02:29:27.719Z,21.00
2018-08-24T02:31:56.076Z,20.90
2018-08-24T02:34:24.698Z,20.80
2018-08-24T02:36:53.064Z,20.90
2018-08-24T02:39:21.479Z,20.90
2018-08-24T02:41:49.917Z,21.00
2018-08-24T02:44:18.283Z,21.00
2018-08-24T02:46:47.292Z,21.10
2018-08-24T02:49:15.681Z,21.10
2018-08-24T02:51:44.022Z,21.10
2018-08-24T02:54:12.349Z,21.10
2018-08-24T02:56:40.742Z,21.00
2018-08-24T02:59:09.142Z,21.00
2018-08-24T03:01:37.523Z,21.00
2018-08-24T03:04:05.987Z,21.00
2018-08-24T03:06:34.347Z,21.00
2018-08-24T03:09:03.622Z,21.00
2018-08-24T03:11:31.962Z,21.00
2018-08-24T03:14:00.301Z,21.00
2018-08-24T03:16:28.722Z,20.80
2018-08-24T03:18:57.049Z,20.80
2018-08-24T03:21:25.426Z,20.70
2018-08-24T03:23:53.823Z,20.60
2018-08-24T03:26:22.210Z,20.60
2018-08-24T03:28:50.610Z,20.60
2018-08-24T03:31:18.990Z,20.60
2018-08-24T03:33:47.375Z,20.70
2018-08-24T03:36:15.710Z,20.70
2018-08-24T03:38:44.112Z,20.70
2018-08-24T03:41:12.465Z,20.80
2018-08-24T03:43:41.034Z,20.80
2018-08-24T03:46:09.434Z,20.90
2018-08-24T03:48:37.784Z,20.90
2018-08-24T03:51:06.100Z,20.80
2018-08-24T03:53:34.572Z,20.90
2018-08-24T03:56:02.989Z,20.90
2018-08-24T03:58:31.486Z,20.90
2018-08-24T04:00:59.910Z,21.00
2018-08-24T04:03:29.356Z,20.70
2018-08-24T04:05:58.117Z,20.70
2018-08-24T04:08:26.498Z,20.80
2018-08-24T04:10:54.860Z,20.70
2018-08-24T04:13:30.097Z,20.60
2018-08-24T04:15:58.472Z,20.60
2018-08-24T04:18:26.930Z,20.60
2018-08-24T04:20:55.309Z,20.50
2018-08-24T04:23:23.785Z,20.50
2018-08-24T04:25:52.181Z,20.60
2018-08-24T04:28:20.570Z,20.60
2018-08-24T04:30:49.205Z,20.60
2018-08-24T04:33:17.581Z,20.60
2018-08-24T04:35:46.020Z,20.60
2018-08-24T04:38:14.363Z,20.60
2018-08-24T04:40:42.717Z,20.60
2018-08-24T04:43:11.118Z,20.60
2018-08-24T04:45:39.645Z,20.60
2018-08-24T04:48:07.948Z,20.60
2018-08-24T04:50:36.367Z,20.60
2018-08-24T04:53:04.792Z,20.60
2018-08-24T04:55:33.184Z,20.60
2018-08-24T04:58:01.586Z,20.60
2018-08-24T05:00:30.035Z,20.60
2018-08-24T05:02:58.486Z,20.70
2018-08-24T05:05:26.832Z,20.70
2018-08-24T05:07:55.258Z,20.70
2018-08-24T05:10:23.609Z,20.80
2018-08-24T05:12:52.045Z,20.70
2018-08-24T05:15:20.446Z,20.70
2018-08-24T05:17:48.888Z,20.60
2018-08-24T05:20:17.302Z,20.60
2018-08-24T05:22:45.722Z,20.70
2018-08-24T05:25:14.182Z,20.70
2018-08-24T05:27:42.565Z,20.80
2018-08-24T05:30:10.983Z,20.80
2018-08-24T05:32:39.358Z,20.80
2018-08-24T05:35:07.783Z,20.80
2018-08-24T05:37:36.178Z,20.90
2018-08-24T05:40:04.628Z,20.90
2018-08-24T05:42:33.049Z,20.90
2018-08-24T05:45:01.475Z,20.90
2018-08-24T05:47:29.881Z,20.90
2018-08-24T05:49:58.294Z,20.90
2018-08-24T05:52:26.681Z,21.00
2018-08-24T05:54:55.014Z,21.00
2018-08-24T05:57:23.387Z,21.00
2018-08-24T05:59:51.776Z,21.10
2018-08-24T06:02:20.229Z,21.00
2018-08-24T06:04:48.634Z,21.00
2018-08-24T06:07:17.040Z,21.00
2018-08-24T06:09:45.415Z,21.10
2018-08-24T06:12:13.774Z,21.10
2018-08-24T06:14:42.236Z,21.20
2018-08-24T06:17:16.343Z,21.20
2018-08-24T06:19:44.770Z,21.20
2018-08-24T06:22:13.175Z,21.10
2018-08-24T06:24:41.598Z,21.20
2018-08-24T06:27:09.972Z,21.30
2018-08-24T06:29:38.386Z,21.40
2018-08-24T06:32:06.933Z,21.30
2018-08-24T06:34:35.370Z,21.30
2018-08-24T06:37:03.930Z,21.40
2018-08-24T06:39:32.288Z,21.50
2018-08-24T06:42:00.723Z,21.60
2018-08-24T06:44:28.975Z,21.60
2018-08-24T06:46:57.357Z,21.70
2018-08-24T06:49:25.779Z,21.60
2018-08-24T06:51:54.282Z,21.70
2018-08-24T06:54:22.725Z,21.80
2018-08-24T06:56:51.165Z,21.90
2018-08-24T06:59:19.569Z,21.90
2018-08-24T07:01:47.908Z,22.10
2018-08-24T07:04:16.299Z,22.10
2018-08-24T07:06:44.695Z,22.10
2018-08-24T07:09:13.167Z,22.20
2018-08-24T07:11:41.651Z,22.30
2018-08-24T07:14:10.054Z,22.30
2018-08-24T07:16:38.527Z,22.40
2018-08-24T07:19:06.870Z,22.40
2018-08-24T07:21:35.302Z,22.40
2018-08-24T07:24:03.736Z,22.00
2018-08-24T07:26:32.081Z,21.90
2018-08-24T07:29:00.396Z,21.60
2018-08-24T07:31:28.777Z,21.70
2018-08-24T07:33:57.122Z,21.80
2018-08-24T07:36:25.506Z,21.80
2018-08-24T07:38:53.882Z,21.90
2018-08-24T07:41:22.292Z,21.80
2018-08-24T07:43:50.708Z,21.80
2018-08-24T07:46:19.081Z,21.80
2018-08-24T07:48:47.546Z,21.80
2018-08-24T07:51:15.915Z,21.70
2018-08-24T07:53:44.349Z,21.80
2018-08-24T07:56:12.648Z,21.70
2018-08-24T07:58:41.188Z,21.70
2018-08-24T08:01:09.539Z,21.70
2018-08-24T08:03:37.884Z,21.80
2018-08-24T08:06:06.240Z,21.70
2018-08-24T08:08:34.579Z,21.70
2018-08-24T08:11:02.981Z,21.60
2018-08-24T08:13:31.435Z,21.70
2018-08-24T08:15:59.903Z,21.70
2018-08-24T08:18:28.377Z,21.90
2018-08-24T08:20:56.812Z,21.80
2018-08-24T08:23:25.165Z,21.80
2018-08-24T08:25:53.580Z,21.80
2018-08-24T08:28:22.011Z,21.90
2018-08-24T08:30:50.439Z,21.80
2018-08-24T08:33:18.895Z,21.70
2018-08-24T08:35:47.306Z,21.50
2018-08-24T08:38:15.644Z,21.40
2018-08-24T08:40:44.014Z,21.40
2018-08-24T08:43:12.930Z,21.50
2018-08-24T08:45:41.346Z,21.70
2018-08-24T08:48:09.823Z,21.70
2018-08-24T08:50:38.228Z,21.80
2018-08-24T08:53:06.791Z,21.90
2018-08-24T08:55:35.222Z,21.90
2018-08-24T08:58:05.509Z,22.00
2018-08-24T09:00:33.955Z,22.00
2018-08-24T09:03:02.465Z,21.90
2018-08-24T09:05:30.832Z,21.90
2018-08-24T09:07:59.324Z,21.90
2018-08-24T09:10:27.729Z,21.90
2018-08-24T09:12:56.114Z,22.00
2018-08-24T09:15:24.495Z,22.10
2018-08-24T09:17:59.409Z,22.00
2018-08-24T09:20:33.405Z,22.00
2018-08-24T09:23:07.285Z,22.10
2018-08-24T09:25:41.309Z,22.30
2018-08-24T09:28:15.089Z,22.40
2018-08-24T09:30:50.586Z,22.70
2018-08-24T09:33:19.037Z,22.70
2018-08-24T09:35:47.547Z,22.60
2018-08-24T09:38:15.936Z,22.80
2018-08-24T09:40:49.846Z,23.00
2018-08-24T09:43:23.752Z,23.20
2018-08-24T09:45:52.070Z,23.00
2018-08-24T09:48:25.567Z,23.20
2018-08-24T09:50:59.439Z,23.20
2018-08-24T09:53:33.516Z,23.00
2018-08-24T09:56:01.892Z,23.00
2018-08-24T09:58:30.541Z,22.90
2018-08-24T10:01:04.452Z,22.50
2018-08-24T10:03:38.444Z,22.00
2018-08-24T10:06:12.293Z,21.70
2018-08-24T10:08:46.135Z,21.30
2018-08-24T10:11:14.591Z,21.10
2018-08-24T10:13:43.014Z,20.90
2018-08-24T10:16:11.511Z,20.90
2018-08-24T10:18:40.006Z,20.90
2018-08-24T10:21:08.870Z,21.00
2018-08-24T10:23:37.439Z,21.20
2018-08-24T10:26:05.878Z,21.30
2018-08-24T10:28:34.254Z,21.40
2018-08-24T10:31:02.633Z,21.60
2018-08-24T10:33:30.992Z,21.80
2018-08-24T10:35:59.397Z,21.90
2018-08-24T10:38:27.857Z,22.10
2018-08-24T10:40:56.803Z,22.10
2018-08-24T10:43:25.142Z,22.20
2018-08-24T10:45:53.545Z,22.30
2018-08-24T10:48:21.916Z,22.40
2018-08-24T10:50:50.376Z,22.40
2018-08-24T10:53:18.797Z,22.50
2018-08-24T10:55:47.339Z,22.50
2018-08-24T10:58:15.545Z,22.10
2018-08-24T11:00:44.722Z,21.70
2018-08-24T11:03:13.130Z,20.90
2018-08-24T11:05:41.615Z,20.30
2018-08-24T11:08:09.985Z,19.70
2018-08-24T11:10:38.440Z,18.70
2018-08-24T11:13:06.992Z,18.10
2018-08-24T11:15:36.560Z,17.80
2018-08-24T11:18:06.051Z,17.70
2018-08-24T11:20:35.196Z,17.60
2018-08-24T11:23:03.944Z,17.80
2018-08-24T11:25:32.423Z,17.70
2018-08-24T11:28:00.990Z,17.50
2018-08-24T11:30:29.499Z,17.40
2018-08-24T11:32:58.318Z,17.30
2018-08-24T11:35:26.840Z,17.20
2018-08-24T11:37:55.456Z,17.30
2018-08-24T11:40:23.861Z,17.20
2018-08-24T11:42:52.370Z,17.20
2018-08-24T11:45:20.858Z,17.20
2018-08-24T11:47:49.263Z,17.10
2018-08-24T11:50:18.500Z,17.10
2018-08-24T11:52:46.865Z,17.00
2018-08-24T11:55:15.213Z,17.10
2018-08-24T11:57:43.617Z,17.20
2018-08-24T12:00:11.974Z,17.30
2018-08-24T12:02:40.418Z,17.40
2018-08-24T12:05:08.759Z,17.40
2018-08-24T12:07:37.107Z,17.20
2018-08-24T12:10:05.697Z,17.30
2018-08-24T12:12:34.151Z,17.40
2018-08-24T12:15:02.485Z,17.40
2018-08-24T12:17:33.506Z,17.50
2018-08-24T12:20:02.068Z,17.50
2018-08-24T12:22:30.447Z,17.50
2018-08-24T12:24:59.561Z,17.70
2018-08-24T12:27:27.991Z,17.70
2018-08-24T12:29:56.529Z,17.70
2018-08-24T12:32:24.906Z,17.90
2018-08-24T12:34:54.132Z,17.90
2018-08-24T12:37:22.532Z,18.00
2018-08-24T12:39:50.915Z,18.10
2018-08-24T12:42:19.381Z,18.20
2018-08-24T12:44:47.810Z,18.00
2018-08-24T12:47:16.189Z,18.00
2018-08-24T12:49:44.603Z,17.80
2018-08-24T12:52:19.853Z,17.90
2018-08-24T12:54:48.306Z,17.80
2018-08-24T12:57:16.676Z,17.70
2018-08-24T12:59:45.674Z,17.70
2018-08-24T13:02:14.091Z,17.70
2018-08-24T13:04:42.510Z,17.70
2018-08-24T13:07:10.837Z,17.60
2018-08-24T13:09:39.193Z,17.50
2018-08-24T13:12:08.274Z,17.50
2018-08-24T13:14:36.704Z,17.60
2018-08-24T13:17:05.136Z,17.70
2018-08-24T13:19:33.407Z,17.60
2018-08-24T13:22:01.769Z,17.60
2018-08-24T13:24:30.051Z,17.60
2018-08-24T13:26:58.397Z,17.40
2018-08-24T13:29:26.748Z,17.30
2018-08-24T13:31:55.110Z,17.20
2018-08-24T13:34:23.832Z,17.30
2018-08-24T13:36:52.315Z,17.30
2018-08-24T13:39:20.627Z,17.30
2018-08-24T13:41:48.985Z,17.40
2018-08-24T13:44:17.347Z,17.40
2018-08-24T13:46:45.718Z,17.60
2018-08-24T13:49:14.050Z,17.50
2018-08-24T13:51:42.470Z,17.70
2018-08-24T13:54:10.837Z,18.00
2018-08-24T13:56:39.222Z,17.90
2018-08-24T13:59:07.646Z,18.00
2018-08-24T14:01:36.102Z,18.20
2018-08-24T14:04:04.569Z,18.30
2018-08-24T14:06:32.867Z,18.50
2018-08-24T14:09:01.265Z,18.40
2018-08-24T14:11:29.818Z,18.40
2018-08-24T14:13:58.158Z,18.40
2018-08-24T14:16:26.506Z,18.20
2018-08-24T14:18:54.977Z,18.30
2018-08-24T14:21:23.306Z,18.40
2018-08-24T14:23:51.643Z,18.50
2018-08-24T14:26:20.049Z,18.60
2018-08-24T14:28:48.387Z,18.70
2018-08-24T14:31:16.737Z,18.60
2018-08-24T14:33:45.099Z,18.60
2018-08-24T14:36:13.510Z,18.60
2018-08-24T14:38:41.879Z,18.60
2018-08-24T14:41:11.458Z,18.70
2018-08-24T14:43:39.871Z,18.70
2018-08-24T14:46:09.020Z,18.70
2018-08-24T14:48:37.373Z,18.70
2018-08-24T14:51:05.750Z,18.60
2018-08-24T14:53:34.182Z,18.60
2018-08-24T14:56:02.574Z,18.60
2018-08-24T14:58:30.859Z,18.40
2018-08-24T15:00:59.207Z,18.60
2018-08-24T15:03:27.602Z,18.50
2018-08-24T15:05:56.035Z,18.40
2018-08-24T15:08:24.414Z,18.40
2018-08-24T15:10:52.814Z,18.30
2018-08-24T15:13:21.204Z,18.30
2018-08-24T15:15:49.603Z,18.40
2018-08-24T15:18:18.012Z,18.30
2018-08-24T15:20:46.405Z,18.30
2018-08-24T15:23:14.817Z,18.40
2018-08-24T15:25:43.213Z,18.50
2018-08-24T15:28:11.573Z,18.50
2018-08-24T15:30:39.927Z,18.50
2018-08-24T15:33:08.318Z,18.60
2018-08-24T15:35:36.684Z,18.50
2018-08-24T15:38:05.169Z,18.70
2018-08-24T15:40:33.557Z,18.80
2018-08-24T15:43:01.910Z,18.70
2018-08-24T15:45:30.326Z,18.70
2018-08-24T15:47:58.710Z,18.80
2018-08-24T15:50:27.735Z,18.70
2018-08-24T15:52:56.116Z,18.80
2018-08-24T15:55:24.433Z,18.70
2018-08-24T15:57:52.809Z,18.80
2018-08-24T16:00:21.181Z,18.80
2018-08-24T16:02:49.515Z,18.90
2018-08-24T16:05:17.937Z,18.60
2018-08-24T16:07:46.354Z,18.60
2018-08-24T16:10:14.717Z,18.60
2018-08-24T16:12:43.314Z,18.60
2018-08-24T16:15:11.682Z,18.60
2018-08-24T16:17:40.092Z,18.60
2018-08-24T16:20:08.473Z,18.60
2018-08-24T16:22:36.806Z,18.70
2018-08-24T16:25:05.230Z,18.80
2018-08-24T16:27:33.993Z,18.70
2018-08-24T16:30:02.430Z,18.80
2018-08-24T16:32:30.827Z,18.90
2018-08-24T16:34:59.204Z,19.00
2018-08-24T16:37:27.644Z,19.00
2018-08-24T16:39:56.047Z,19.10
2018-08-24T16:42:24.453Z,19.10
2018-08-24T16:44:52.814Z,19.10
2018-08-24T16:47:21.183Z,19.00
2018-08-24T16:49:49.588Z,19.10
2018-08-24T16:52:18.039Z,19.00
2018-08-24T16:54:46.369Z,19.10
2018-08-24T16:57:14.770Z,19.10
2018-08-24T16:59:43.157Z,19.00
2018-08-24T17:02:12.454Z,19.00
2018-08-24T17:04:40.859Z,19.00
2018-08-24T17:07:09.236Z,19.10
2018-08-24T17:09:37.541Z,19.00
2018-08-24T17:12:05.927Z,19.10
2018-08-24T17:14:34.269Z,19.00
2018-08-24T17:17:02.662Z,19.00
2018-08-24T17:19:31.018Z,19.10
2018-08-24T17:21:59.502Z,19.00
2018-08-24T17:24:27.894Z,19.00
2018-08-24T17:26:56.228Z,19.00
2018-08-24T17:29:24.626Z,19.10
2018-08-24T17:31:53.015Z,18.80
2018-08-24T17:34:21.340Z,18.80
2018-08-24T17:38:03.070Z,18.90
2018-08-24T17:40:31.437Z,18.90
2018-08-24T17:42:59.775Z,19.00
2018-08-24T17:45:28.191Z,18.80
2018-08-24T17:47:56.628Z,18.90
2018-08-24T17:50:25.032Z,18.80
2018-08-24T17:52:53.392Z,18.60
2018-08-24T17:55:21.789Z,18.60
2018-08-24T17:57:50.156Z,18.60
2018-08-24T18:00:18.676Z,18.60
2018-08-24T18:02:47.164Z,18.60
2018-08-24T18:05:15.625Z,18.70
2018-08-24T18:07:44.007Z,18.70
2018-08-24T18:10:12.416Z,18.80
2018-08-24T18:12:41.334Z,18.80
2018-08-24T18:15:09.910Z,18.80
2018-08-24T18:17:38.322Z,18.70
2018-08-24T18:20:06.822Z,18.70
2018-08-24T18:22:35.259Z,18.70
2018-08-24T18:25:03.811Z,18.70
2018-08-24T18:27:32.332Z,18.70
2018-08-24T18:30:00.913Z,18.70
2018-08-24T18:32:29.281Z,18.70
2018-08-24T18:34:57.771Z,18.60
2018-08-24T18:37:26.158Z,18.60
2018-08-24T18:39:54.963Z,18.60
2018-08-24T18:42:23.490Z,18.60
2018-08-24T18:44:51.898Z,18.60
2018-08-24T18:47:20.565Z,18.60
2018-08-24T18:49:48.982Z,18.70
2018-08-24T18:52:17.377Z,18.60
2018-08-24T18:54:45.799Z,18.60
2018-08-24T18:57:14.223Z,18.60
2018-08-24T18:59:42.616Z,18.60
2018-08-24T19:02:11.038Z,18.60
2018-08-24T19:04:39.555Z,18.60
2018-08-24T19:07:08.385Z,18.50
2018-08-24T19:09:36.817Z,18.50
2018-08-24T19:12:11.120Z,18.50
2018-08-24T19:14:40.418Z,18.50
2018-08-24T19:17:15.075Z,18.50
2018-08-24T19:19:49.126Z,18.50
2018-08-24T19:22:17.668Z,18.50
2018-08-24T19:24:46.221Z,18.50
2018-08-24T19:27:14.845Z,18.50
2018-08-24T19:29:49.001Z,18.40
2018-08-24T19:32:17.365Z,18.50
2018-08-24T19:34:45.810Z,18.50
2018-08-24T19:37:14.187Z,18.50
2018-08-24T19:39:47.194Z,18.40
2018-08-24T19:42:21.300Z,18.40
2018-08-24T19:44:49.735Z,18.50
2018-08-24T19:47:23.841Z,18.40
2018-08-24T19:49:52.395Z,18.40
2018-08-24T19:52:20.882Z,18.40
2018-08-24T19:54:49.413Z,18.50
2018-08-24T19:57:23.478Z,18.50
2018-08-24T19:59:51.896Z,18.50
2018-08-24T20:02:20.489Z,18.40
2018-08-24T20:04:48.988Z,18.40
2018-08-24T20:07:22.894Z,18.40
2018-08-24T20:10:04.216Z,18.40
2018-08-24T20:12:32.584Z,18.50
2018-08-24T20:15:06.595Z,18.60
2018-08-24T20:17:34.985Z,18.50
2018-08-24T20:20:03.504Z,18.40
2018-08-24T20:22:31.865Z,18.30
2018-08-24T20:25:00.319Z,18.30
2018-08-24T20:27:28.689Z,18.30
2018-08-24T20:29:57.103Z,18.30
2018-08-24T20:32:25.538Z,18.30
2018-08-24T20:34:53.965Z,18.40
2018-08-24T20:37:22.421Z,18.40
2018-08-24T20:39:50.790Z,18.40
2018-08-24T20:42:19.195Z,18.40
2018-08-24T20:44:47.644Z,18.30
2018-08-24T20:47:16.196Z,18.30
2018-08-24T20:49:44.623Z,18.30
2018-08-24T20:52:13.117Z,18.30
2018-08-24T20:54:41.584Z,18.30
2018-08-24T20:57:10.023Z,18.30
2018-08-24T20:59:38.813Z,18.20
2018-08-24T21:02:07.767Z,18.20
2018-08-24T21:04:36.295Z,18.30
2018-08-24T21:07:05.022Z,18.20
2018-08-24T21:09:33.355Z,18.20
2018-08-24T21:12:01.827Z,18.20
2018-08-24T21:14:30.922Z,18.10
2018-08-24T21:16:59.397Z,18.10
2018-08-24T21:19:28.453Z,18.10
2018-08-24T21:21:56.893Z,18.10
2018-08-24T21:24:25.666Z,18.10
2018-08-24T21:26:54.150Z,18.10
2018-08-24T21:29:22.568Z,18.00
2018-08-24T21:31:50.945Z,18.00
2018-08-24T21:34:19.342Z,18.00
2018-08-24T21:36:48.158Z,18.00
2018-08-24T21:39:16.565Z,18.00
2018-08-24T21:41:44.999Z,18.00
2018-08-24T21:44:13.367Z,18.10
2018-08-24T21:46:41.691Z,18.10
2018-08-24T21:49:10.081Z,18.10
2018-08-24T21:51:38.645Z,18.10
2018-08-24T21:54:07.131Z,18.10
2018-08-24T21:56:35.477Z,18.00
2018-08-24T21:59:03.960Z,17.90
2018-08-24T22:01:32.362Z,17.80
2018-08-24T22:04:00.890Z,17.80
2018-08-24T22:06:30.069Z,17.80
2018-08-24T22:08:58.401Z,17.70
2018-08-24T22:11:26.887Z,17.60
2018-08-24T22:13:55.209Z,17.50
2018-08-24T22:16:23.563Z,17.50
2018-08-24T22:18:51.907Z,17.50
2018-08-24T22:21:20.291Z,17.50
2018-08-24T22:23:48.639Z,17.50
2018-08-24T22:26:16.956Z,17.50
2018-08-24T22:28:45.348Z,17.50
2018-08-24T22:31:13.712Z,17.50
2018-08-24T22:33:42.082Z,17.50
2018-08-24T22:36:10.447Z,17.50
2018-08-24T22:38:38.757Z,17.40
2018-08-24T22:41:07.126Z,17.40
2018-08-24T22:43:36.475Z,17.40
2018-08-24T22:46:05.562Z,17.40
2018-08-24T22:48:34.134Z,17.40
2018-08-24T22:51:03.205Z,17.30
2018-08-24T22:53:31.534Z,17.30
2018-08-24T22:56:00.043Z,17.30
2018-08-24T22:58:28.397Z,17.30
2018-08-24T23:00:56.730Z,17.20
2018-08-24T23:03:25.123Z,17.20
2018-08-24T23:05:53.481Z,17.00
2018-08-24T23:08:21.820Z,17.00
2018-08-24T23:10:50.206Z,17.00
2018-08-24T23:13:18.577Z,16.90
2018-08-24T23:15:46.890Z,17.00
2018-08-24T23:18:15.237Z,17.00
2018-08-24T23:20:43.531Z,17.10
2018-08-24T23:23:11.871Z,17.00
2018-08-24T23:25:40.180Z,17.00
2018-08-24T23:28:08.542Z,17.00
2018-08-24T23:30:36.997Z,17.00
2018-08-24T23:33:05.489Z,16.90
2018-08-24T23:35:33.849Z,16.90
2018-08-24T23:38:02.204Z,16.80
2018-08-24T23:40:30.569Z,16.70
2018-08-24T23:42:58.932Z,16.70
2018-08-24T23:45:27.292Z,16.70
2018-08-24T23:47:55.599Z,16.50
2018-08-24T23:50:23.973Z,16.50
2018-08-24T23:52:52.284Z,16.50
2018-08-24T23:55:20.558Z,16.50
2018-08-24T23:57:48.865Z,16.50
